Time;durP1;ratioP1;P1;durP2;ratioP2;P2;SDS_P1;SDS_P2;PMS_P1;PMS_P2;Temp;Humidity;BMP_temperature;BMP_pressure;BME280_temperature;BME280_humidity;BME280_pressure;Samples;Min_cycle;Max_cycle;Signal;HPM_P1;HPM_P2
2023/03/02 00:01:51;;;;;;;0.10;0.10;;;0.50;99.90;230.40;231737.00;;;;5072605;28;20678;-77
2023/03/02 00:04:26;;;;;;;0.10;0.10;;;0.50;99.90;230.40;231737.00;;;;5089356;28;20213;-77
2023/03/02 00:07:01;;;;;;;0.20;0.20;;;0.40;99.90;230.40;231737.00;;;;5092843;28;20181;-77
2023/03/02 00:09:29;;;;;;;0.10;0.10;;;0.20;99.90;230.40;231737.00;;;;5085561;28;20178;-78
2023/03/02 00:11:57;;;;;;;0.10;0.10;;;0.10;99.90;230.40;231737.00;;;;5093615;28;20217;-78
2023/03/02 00:14:26;;;;;;;0.10;0.10;;;0.10;99.90;230.40;231737.00;;;;5095094;28;20181;-78
2023/03/02 00:16:54;;;;;;;0.10;0.10;;;0.10;99.90;230.40;231737.00;;;;5093941;28;20251;-77
2023/03/02 00:19:22;;;;;;;0.10;0.10;;;0.00;99.90;230.40;231737.00;;;;5092294;28;20188;-77
2023/03/02 00:21:50;;;;;;;0.10;0.10;;;0.00;99.90;230.40;231737.00;;;;5085747;22;20268;-77
2023/03/02 00:24:18;;;;;;;0.10;0.10;;;0.00;99.90;230.40;231737.00;;;;5038101;28;20222;-76
2023/03/02 00:26:46;;;;;;;0.10;0.10;;;0.00;99.90;230.40;231737.00;;;;5030906;28;20725;-77
2023/03/02 00:29:14;;;;;;;0.10;0.10;;;0.00;99.90;230.40;231737.00;;;;5036277;28;20210;-77
2023/03/02 00:31:44;;;;;;;0.10;0.10;;;0.10;99.90;230.40;231737.00;;;;5042666;28;20211;-76
2023/03/02 00:34:12;;;;;;;0.10;0.10;;;0.10;99.90;230.40;231737.00;;;;5022090;28;20250;-76
2023/03/02 00:36:40;;;;;;;0.10;0.10;;;0.20;99.90;230.40;231737.00;;;;5005467;28;20245;-76
2023/03/02 00:39:09;;;;;;;0.10;0.10;;;0.30;99.90;230.40;231737.00;;;;5027563;28;20191;-76
2023/03/02 00:41:37;;;;;;;0.10;0.10;;;0.30;99.90;230.40;231737.00;;;;5021625;28;20198;-75
2023/03/02 00:44:05;;;;;;;0.05;0.05;;;0.30;99.90;230.40;231737.00;;;;5021852;28;20603;-75
2023/03/02 00:46:33;;;;;;;0.10;0.10;;;0.20;99.90;230.40;231737.00;;;;5019663;28;20250;-75
2023/03/02 00:49:03;;;;;;;0.20;0.20;;;0.20;99.90;230.40;231737.00;;;;5006230;28;20737;-76
2023/03/02 00:51:31;;;;;;;0.10;0.10;;;0.20;99.90;230.40;231737.00;;;;4998085;28;20208;-76
2023/03/02 00:54:01;;;;;;;0.20;0.20;;;0.20;99.90;230.40;231737.00;;;;5022301;28;20222;-75
2023/03/02 00:56:29;;;;;;;0.10;0.10;;;0.10;99.90;230.40;231737.00;;;;5016912;28;20199;-75
2023/03/02 00:58:58;;;;;;;0.10;0.10;;;0.10;99.90;230.40;231737.00;;;;5002645;28;20270;-75
2023/03/02 01:01:26;;;;;;;0.10;0.10;;;0.10;99.90;230.40;231737.00;;;;5004704;28;20963;-75
2023/03/02 01:03:54;;;;;;;0.10;0.10;;;0.10;99.90;230.40;231737.00;;;;5002375;28;20261;-74
2023/03/02 01:06:23;;;;;;;0.10;0.10;;;0.10;99.90;230.40;231737.00;;;;5002769;28;20258;-74
2023/03/02 01:08:51;;;;;;;0.10;0.10;;;0.00;99.90;230.40;231737.00;;;;5027490;28;20219;-74
2023/03/02 01:11:22;;;;;;;0.10;0.10;;;0.00;99.90;230.40;231737.00;;;;5022065;28;20192;-74
2023/03/02 01:13:51;;;;;;;0.20;0.20;;;0.00;99.90;230.40;231737.00;;;;5025397;28;20250;-74
2023/03/02 01:16:19;;;;;;;0.10;0.10;;;0.00;99.90;230.40;231737.00;;;;5009715;28;20208;-75
2023/03/02 01:18:47;;;;;;;0.10;0.10;;;0.00;99.90;230.40;231737.00;;;;5023417;28;20571;-76
2023/03/02 01:21:16;;;;;;;0.10;0.10;;;-0.10;99.90;230.40;231737.00;;;;5015648;28;20195;-76
2023/03/02 01:23:45;;;;;;;0.10;0.10;;;-0.10;99.90;230.40;231737.00;;;;5020208;28;20207;-75
2023/03/02 01:26:13;;;;;;;0.20;0.20;;;-0.20;99.90;230.40;231737.00;;;;5020377;28;20703;-75
2023/03/02 01:28:41;;;;;;;0.10;0.10;;;-0.20;99.90;230.40;231737.00;;;;5007693;28;20196;-76
2023/03/02 01:31:09;;;;;;;0.10;0.10;;;-0.10;99.90;230.40;231737.00;;;;5015692;28;20196;-75
2023/03/02 01:33:37;;;;;;;0.10;0.10;;;-0.10;99.90;230.40;231737.00;;;;5021232;28;20219;-76
2023/03/02 01:36:07;;;;;;;0.10;0.10;;;-0.10;99.90;230.40;231737.00;;;;5011422;28;20696;-76
2023/03/02 01:38:35;;;;;;;0.10;0.10;;;0.00;99.90;230.40;231737.00;;;;5011744;28;20207;-76
2023/03/02 01:41:05;;;;;;;0.10;0.10;;;0.00;99.90;230.40;231737.00;;;;5037568;28;20222;-76
2023/03/02 01:43:33;;;;;;;0.20;0.20;;;-0.10;99.90;230.40;231737.00;;;;5010922;28;20225;-76
2023/03/02 01:46:04;;;;;;;0.10;0.10;;;-0.10;99.90;230.40;231737.00;;;;5027180;28;20293;-74
2023/03/02 01:49:00;;;;;;;0.20;0.20;;;-0.20;99.90;230.40;231737.00;;;;5010381;28;20648;-74
2023/03/02 01:51:45;;;;;;;0.10;0.10;;;-0.20;99.90;230.40;231737.00;;;;5019325;28;20206;-75
2023/03/02 01:54:22;;;;;;;0.10;0.10;;;-0.20;99.90;230.40;231737.00;;;;5026407;28;20203;-74
2023/03/02 01:57:01;;;;;;;0.17;0.17;;;-0.20;99.90;230.40;231737.00;;;;5002582;28;20213;-74
2023/03/02 01:59:33;;;;;;;0.10;0.10;;;-0.30;99.90;230.40;231737.00;;;;5027330;28;20675;-75
2023/03/02 02:02:08;;;;;;;0.20;0.20;;;-0.20;99.90;230.40;231737.00;;;;5026376;28;20232;-75
2023/03/02 02:04:41;;;;;;;0.10;0.10;;;-0.20;99.90;230.40;231737.00;;;;5009442;28;20204;-75
2023/03/02 02:07:10;;;;;;;0.10;0.10;;;-0.20;99.90;230.40;231737.00;;;;5018978;28;20265;-75
2023/03/02 02:09:46;;;;;;;0.10;0.10;;;-0.30;99.90;230.40;231737.00;;;;5005244;28;20779;-75
2023/03/02 02:12:19;;;;;;;0.10;0.10;;;-0.30;99.90;230.40;231737.00;;;;5019762;28;20241;-74
2023/03/02 02:14:48;;;;;;;0.10;0.10;;;-0.20;99.90;230.40;231737.00;;;;5012370;28;20195;-74
2023/03/02 02:17:19;;;;;;;0.10;0.10;;;-0.30;99.90;230.40;231737.00;;;;5021184;28;20207;-74
2023/03/02 02:20:05;;;;;;;0.10;0.10;;;-0.30;99.90;230.40;231737.00;;;;5018211;28;20202;-74
2023/03/02 02:22:49;;;;;;;0.10;0.10;;;-0.30;99.90;230.40;231737.00;;;;5009769;28;20219;-74
2023/03/02 02:25:36;;;;;;;0.10;0.10;;;-0.40;99.90;230.40;231737.00;;;;5027100;28;20736;-74
2023/03/02 02:28:12;;;;;;;0.10;0.10;;;-0.40;99.90;230.40;231737.00;;;;5011424;28;20205;-74
2023/03/02 02:30:41;;;;;;;0.17;0.17;;;-0.40;99.90;230.40;231737.00;;;;5025344;28;20208;-74
2023/03/02 02:33:18;;;;;;;0.10;0.10;;;-0.70;99.90;230.40;231737.00;;;;5001607;28;20239;-74
2023/03/02 02:35:48;;;;;;;0.13;0.13;;;-1.10;99.90;230.40;231737.00;;;;5028031;28;20210;-74
2023/03/02 02:38:20;;;;;;;0.10;0.10;;;-1.20;99.90;230.40;231737.00;;;;5006562;28;20291;-73
2023/03/02 02:40:55;;;;;;;0.17;0.17;;;-1.30;99.90;230.40;231737.00;;;;5023546;28;20258;-74
2023/03/02 02:43:32;;;;;;;0.20;0.20;;;-1.30;99.90;230.40;231737.00;;;;5020456;28;20215;-74
2023/03/02 02:46:02;;;;;;;0.20;0.20;;;-1.40;99.90;230.40;231737.00;;;;5028316;28;20223;-74
2023/03/02 02:48:32;;;;;;;0.20;0.20;;;-1.50;99.90;230.40;231737.00;;;;5019721;28;20210;-74
2023/03/02 02:51:01;;;;;;;0.10;0.10;;;-1.50;99.90;230.40;231737.00;;;;5008926;28;20227;-74
2023/03/02 02:53:42;;;;;;;0.20;0.20;;;-1.50;99.90;230.40;231737.00;;;;5029087;28;20219;-74
2023/03/02 02:56:13;;;;;;;0.20;0.20;;;-1.50;99.90;230.40;231737.00;;;;5005253;28;20668;-75
2023/03/02 02:58:48;;;;;;;0.10;0.10;;;-1.40;99.90;230.40;231737.00;;;;5021242;28;20195;-75
2023/03/02 03:01:24;;;;;;;0.20;0.20;;;-1.40;99.90;230.40;231737.00;;;;5037529;28;20195;-75
2023/03/02 03:03:57;;;;;;;0.10;0.10;;;-1.30;99.90;230.40;231737.00;;;;5044593;28;20261;-75
2023/03/02 03:06:36;;;;;;;0.20;0.20;;;-1.30;99.90;230.40;231737.00;;;;5033812;28;20218;-74
2023/03/02 03:09:12;;;;;;;0.20;0.20;;;-1.40;99.90;230.40;231737.00;;;;5042191;28;20222;-77
2023/03/02 03:11:50;;;;;;;0.20;0.20;;;-1.40;99.90;230.40;231737.00;;;;5042393;28;20235;-78
2023/03/02 03:14:26;;;;;;;0.15;0.15;;;-1.40;99.90;230.40;231737.00;;;;5045623;28;20228;-75
2023/03/02 03:16:55;;;;;;;0.10;0.10;;;-1.40;99.90;230.40;231737.00;;;;5030902;28;20207;-75
2023/03/02 03:19:26;;;;;;;0.10;0.10;;;-1.30;99.90;230.40;231737.00;;;;5035473;28;20201;-75
2023/03/02 03:21:59;;;;;;;0.10;0.10;;;-1.20;99.90;230.40;231737.00;;;;5028041;28;20325;-74
2023/03/02 03:24:33;;;;;;;0.20;0.20;;;-1.30;99.90;230.40;231737.00;;;;5050779;28;20205;-75
2023/03/02 03:27:05;;;;;;;0.10;0.10;;;-1.30;99.90;230.40;231737.00;;;;5025402;28;20593;-75
2023/03/02 03:29:40;;;;;;;0.10;0.10;;;-1.20;99.90;230.40;231737.00;;;;5032325;28;20194;-75
2023/03/02 03:32:10;;;;;;;0.10;0.10;;;-1.20;99.90;230.40;231737.00;;;;5046923;28;20218;-76
2023/03/02 03:34:39;;;;;;;0.20;0.20;;;-1.10;99.90;230.40;231737.00;;;;5032387;28;20187;-75
2023/03/02 03:37:18;;;;;;;0.20;0.20;;;-1.00;99.90;230.40;231737.00;;;;5021800;28;20778;-75
2023/03/02 03:39:47;;;;;;;0.10;0.10;;;-1.00;99.90;230.40;231737.00;;;;5048979;28;20209;-75
2023/03/02 03:42:17;;;;;;;0.20;0.20;;;-0.90;99.90;230.40;231737.00;;;;5038454;28;20219;-75
2023/03/02 03:44:47;;;;;;;0.15;0.15;;;-0.90;99.90;230.40;231737.00;;;;5022840;28;20233;-75
2023/03/02 03:47:16;;;;;;;0.10;0.10;;;-0.90;99.90;230.40;231737.00;;;;5039620;28;20315;-75
2023/03/02 03:49:44;;;;;;;0.20;0.20;;;-1.00;99.90;230.40;231737.00;;;;5040812;28;20248;-76
2023/03/02 03:52:12;;;;;;;0.10;0.10;;;-1.00;99.90;230.40;231737.00;;;;5025396;28;20238;-76
2023/03/02 03:54:40;;;;;;;0.10;0.10;;;-1.00;99.90;230.40;231737.00;;;;5053012;28;20596;-76
2023/03/02 03:57:10;;;;;;;0.10;0.10;;;-1.00;99.90;230.40;231737.00;;;;5027821;28;20652;-76
2023/03/02 03:59:39;;;;;;;0.20;0.20;;;-1.00;99.90;230.40;231737.00;;;;5030054;28;20198;-76
2023/03/02 04:02:08;;;;;;;0.10;0.10;;;-1.10;99.90;230.40;231737.00;;;;5022517;28;20233;-76
2023/03/02 04:04:40;;;;;;;0.10;0.10;;;-1.10;99.90;230.40;231737.00;;;;5036590;28;20199;-76
2023/03/02 04:07:13;;;;;;;0.10;0.10;;;-1.10;99.90;230.40;231737.00;;;;5048178;28;20276;-76
2023/03/02 04:09:43;;;;;;;0.10;0.10;;;-1.10;99.90;230.40;231737.00;;;;5031315;28;20198;-77
2023/03/02 04:12:13;;;;;;;0.20;0.20;;;-1.10;99.90;230.40;231737.00;;;;5047771;28;20748;-76
2023/03/02 04:14:46;;;;;;;0.10;0.10;;;-1.10;99.90;230.40;231737.00;;;;5051684;28;20229;-77
2023/03/02 04:17:16;;;;;;;0.10;0.10;;;-1.10;99.90;230.40;231737.00;;;;5032231;28;20207;-77
2023/03/02 04:19:46;;;;;;;0.10;0.10;;;-1.20;99.90;230.40;231737.00;;;;5044934;28;20203;-77
2023/03/02 04:22:15;;;;;;;0.10;0.10;;;-1.30;99.90;230.40;231737.00;;;;5042385;28;20244;-76
2023/03/02 04:24:44;;;;;;;0.10;0.10;;;-1.30;99.90;230.40;231737.00;;;;5030971;28;20210;-77
2023/03/02 04:27:13;;;;;;;0.10;0.10;;;-1.30;99.90;230.40;231737.00;;;;5020759;28;20226;-77
2023/03/02 04:29:43;;;;;;;0.10;0.10;;;-1.30;99.90;230.40;231737.00;;;;5034536;28;20190;-76
2023/03/02 04:32:13;;;;;;;0.20;0.20;;;-1.30;99.90;230.40;231737.00;;;;5028997;28;20206;-75
2023/03/02 04:34:44;;;;;;;0.10;0.10;;;-1.40;99.90;230.40;231737.00;;;;5025198;28;20571;-75
2023/03/02 04:37:14;;;;;;;0.13;0.13;;;-1.40;99.90;230.40;231737.00;;;;5025273;28;20582;-75
2023/03/02 04:39:46;;;;;;;0.20;0.20;;;-1.60;99.90;230.40;231737.00;;;;5031948;28;20187;-76
2023/03/02 04:42:14;;;;;;;0.10;0.10;;;-1.90;99.90;230.40;231737.00;;;;5032822;28;20215;-76
2023/03/02 04:44:41;;;;;;;0.10;0.10;;;-2.00;99.90;230.40;231737.00;;;;5024294;28;20215;-74
2023/03/02 04:47:10;;;;;;;0.10;0.10;;;-2.10;99.90;230.40;231737.00;;;;5025122;28;20218;-76
2023/03/02 04:49:38;;;;;;;0.10;0.10;;;-2.00;99.90;230.40;231737.00;;;;5021826;28;20609;-75
2023/03/02 04:52:08;;;;;;;0.20;0.20;;;-2.00;99.90;230.40;231737.00;;;;5025501;28;20226;-76
2023/03/02 04:54:36;;;;;;;0.10;0.10;;;-1.90;99.90;230.40;231737.00;;;;5029851;28;20195;-75
2023/03/02 04:57:04;;;;;;;0.10;0.10;;;-1.90;99.90;230.40;231737.00;;;;5032555;28;20430;-75
2023/03/02 04:59:32;;;;;;;0.20;0.20;;;-1.80;99.90;230.40;231737.00;;;;5031010;28;20741;-76
2023/03/02 05:02:01;;;;;;;0.10;0.10;;;-1.80;99.90;230.40;231737.00;;;;5031589;28;20215;-76
2023/03/02 05:04:31;;;;;;;0.10;0.10;;;-1.70;99.90;230.40;231737.00;;;;5032255;28;20690;-76
2023/03/02 05:06:59;;;;;;;0.20;0.20;;;-1.70;99.90;230.40;231737.00;;;;5042166;28;20731;-76
2023/03/02 05:09:29;;;;;;;0.10;0.10;;;-1.60;99.90;230.40;231737.00;;;;5028706;28;20199;-77
2023/03/02 05:12:00;;;;;;;0.10;0.10;;;-1.60;99.90;230.40;231737.00;;;;5029407;28;20223;-77
2023/03/02 05:14:29;;;;;;;0.20;0.20;;;-1.60;99.90;230.40;231737.00;;;;5030166;28;20214;-76
2023/03/02 05:16:58;;;;;;;0.10;0.10;;;-1.60;99.90;230.40;231737.00;;;;5029704;28;20218;-76
2023/03/02 05:19:26;;;;;;;0.20;0.20;;;-1.70;99.90;230.40;231737.00;;;;5032546;28;20245;-76
2023/03/02 05:21:55;;;;;;;0.10;0.10;;;-1.70;99.90;230.40;231737.00;;;;5030089;28;20230;-75
2023/03/02 05:24:23;;;;;;;0.10;0.10;;;-1.80;99.90;230.40;231737.00;;;;5022651;28;20661;-76
2023/03/02 05:26:52;;;;;;;0.10;0.10;;;-1.80;99.90;230.40;231737.00;;;;5022068;28;20207;-75
2023/03/02 05:29:20;;;;;;;0.10;0.10;;;-1.70;99.90;230.40;231737.00;;;;5024719;28;20200;-76
2023/03/02 05:31:49;;;;;;;0.20;0.20;;;-1.60;99.90;230.40;231737.00;;;;5014817;28;20227;-77
2023/03/02 05:34:18;;;;;;;0.20;0.20;;;-1.50;99.90;230.40;231737.00;;;;5025429;28;20241;-76
2023/03/02 05:36:46;;;;;;;0.20;0.20;;;-1.50;99.90;230.40;231737.00;;;;5021616;28;20241;-77
2023/03/02 05:39:14;;;;;;;0.10;0.10;;;-1.50;99.90;230.40;231737.00;;;;5023750;28;20199;-77
2023/03/02 05:41:42;;;;;;;0.20;0.20;;;-1.50;99.90;230.40;231737.00;;;;5022071;28;20247;-78
2023/03/02 05:44:11;;;;;;;0.20;0.20;;;-1.60;99.90;230.40;231737.00;;;;5024157;28;20196;-76
2023/03/02 05:46:40;;;;;;;0.10;0.10;;;-1.60;99.90;230.40;231737.00;;;;5021560;28;20204;-76
2023/03/02 05:49:09;;;;;;;0.20;0.20;;;-1.70;99.90;230.40;231737.00;;;;5003920;28;20259;-76
2023/03/02 05:51:37;;;;;;;0.10;0.10;;;-1.60;99.90;230.40;231737.00;;;;5021517;28;20208;-76
2023/03/02 05:54:05;;;;;;;0.20;0.20;;;-1.60;99.90;230.40;231737.00;;;;5011351;28;20261;-76
2023/03/02 05:56:33;;;;;;;0.10;0.10;;;-1.60;99.90;230.40;231737.00;;;;5022139;28;20200;-76
2023/03/02 05:59:01;;;;;;;0.20;0.20;;;-1.60;99.90;230.40;231737.00;;;;5022141;28;20682;-76
2023/03/02 06:01:31;;;;;;;0.10;0.10;;;-1.80;99.90;230.40;231737.00;;;;5023597;28;20203;-76
2023/03/02 06:03:59;;;;;;;0.10;0.10;;;-2.00;99.90;230.40;231737.00;;;;5022545;28;20580;-76
2023/03/02 06:06:27;;;;;;;0.20;0.20;;;-2.00;99.90;230.40;231737.00;;;;5023882;28;20226;-77
2023/03/02 06:08:55;;;;;;;0.20;0.20;;;-1.90;99.90;230.40;231737.00;;;;5022175;28;20235;-76
2023/03/02 06:11:23;;;;;;;0.20;0.20;;;-1.90;99.90;230.40;231737.00;;;;5021270;28;20205;-76
2023/03/02 06:13:51;;;;;;;0.20;0.20;;;-1.80;99.90;230.40;231737.00;;;;5021565;28;20218;-76
2023/03/02 06:16:19;;;;;;;0.20;0.20;;;-1.70;99.90;230.40;231737.00;;;;5023916;28;20264;-73
2023/03/02 06:18:49;;;;;;;0.20;0.20;;;-1.80;99.90;230.40;231737.00;;;;5022644;28;20199;-75
2023/03/02 06:21:17;;;;;;;0.20;0.20;;;-1.80;99.90;230.40;231737.00;;;;5021742;28;20547;-73
2023/03/02 06:23:45;;;;;;;0.20;0.20;;;-1.70;99.90;230.40;231737.00;;;;5022823;28;20831;-75
2023/03/02 06:26:13;;;;;;;0.20;0.20;;;-1.80;99.90;230.40;231737.00;;;;5022622;28;20199;-76
2023/03/02 06:28:41;;;;;;;0.20;0.20;;;-2.00;99.90;230.40;231737.00;;;;5023188;28;20219;-75
2023/03/02 06:31:20;;;;;;;0.20;0.20;;;-2.00;99.90;230.40;231737.00;;;;5022048;28;20203;-76
2023/03/02 06:33:49;;;;;;;0.20;0.20;;;-2.10;99.90;230.40;231737.00;;;;5021980;28;20199;-77
2023/03/02 06:36:17;;;;;;;0.20;0.20;;;-2.00;99.90;230.40;231737.00;;;;5022192;28;20278;-76
2023/03/02 06:38:45;;;;;;;0.20;0.20;;;-2.00;99.90;230.40;231737.00;;;;5005981;28;20253;-77
2023/03/02 06:41:14;;;;;;;0.20;0.20;;;-1.90;99.90;230.40;231737.00;;;;5022937;28;20204;-76
2023/03/02 06:43:42;;;;;;;0.10;0.10;;;-1.90;99.90;230.40;231737.00;;;;5022607;28;20597;-77
2023/03/02 06:46:11;;;;;;;0.10;0.10;;;-1.80;99.90;230.40;231737.00;;;;5021384;28;20195;-77
2023/03/02 06:48:39;;;;;;;0.13;0.13;;;-1.80;99.90;230.40;231737.00;;;;5021324;28;20219;-77
2023/03/02 06:51:09;;;;;;;0.20;0.20;;;-1.70;99.90;230.40;231737.00;;;;5022357;28;20207;-78
2023/03/02 06:53:37;;;;;;;0.20;0.20;;;-1.80;99.90;230.40;231737.00;;;;5022157;28;20704;-78
2023/03/02 06:56:07;;;;;;;0.10;0.10;;;-1.80;99.90;230.40;231737.00;;;;5021188;28;20196;-78
2023/03/02 06:58:36;;;;;;;0.20;0.20;;;-1.80;99.90;230.40;231737.00;;;;5025556;28;20660;-78
2023/03/02 07:01:06;;;;;;;0.20;0.20;;;-1.80;99.90;230.40;231737.00;;;;5020508;28;20195;-78
2023/03/02 07:03:35;;;;;;;0.10;0.10;;;-1.70;99.90;230.40;231737.00;;;;5021494;28;20229;-78
2023/03/02 07:06:04;;;;;;;0.10;0.10;;;-1.80;99.90;230.40;231737.00;;;;5021244;28;20195;-78
2023/03/02 07:08:34;;;;;;;0.20;0.20;;;-1.70;99.90;230.40;231737.00;;;;5020300;28;20219;-78
2023/03/02 07:11:06;;;;;;;0.20;0.20;;;-1.70;99.90;230.40;231737.00;;;;5022167;28;20261;-78
2023/03/02 07:13:36;;;;;;;0.20;0.20;;;-1.80;99.90;230.40;231737.00;;;;5022126;28;20234;-78
2023/03/02 07:16:08;;;;;;;0.20;0.20;;;-1.70;99.90;230.40;231737.00;;;;5021443;28;20261;-78
2023/03/02 07:18:36;;;;;;;0.10;0.10;;;-1.60;99.90;230.40;231737.00;;;;5020822;28;20218;-78
2023/03/02 07:21:04;;;;;;;0.20;0.20;;;-1.50;99.90;230.40;231737.00;;;;5022093;28;20250;-78
2023/03/02 07:23:34;;;;;;;0.20;0.20;;;-1.50;99.90;230.40;231737.00;;;;5039354;28;20239;-78
2023/03/02 07:26:07;;;;;;;0.20;0.20;;;-1.50;99.90;230.40;231737.00;;;;5039406;28;20261;-78
2023/03/02 07:28:38;;;;;;;0.20;0.20;;;-1.40;99.90;230.40;231737.00;;;;5041548;28;20207;-79
2023/03/02 07:31:06;;;;;;;0.10;0.10;;;-1.40;99.90;230.40;231737.00;;;;5044220;28;20203;-77
2023/03/02 07:33:34;;;;;;;0.10;0.10;;;-1.30;99.90;230.40;231737.00;;;;5042142;28;20273;-77
2023/03/02 07:36:02;;;;;;;0.20;0.20;;;-1.40;99.90;230.40;231737.00;;;;5040823;28;20664;-77
2023/03/02 07:38:31;;;;;;;0.10;0.10;;;-1.30;99.90;230.40;231737.00;;;;5044119;28;20195;-77
2023/03/02 07:41:00;;;;;;;0.20;0.20;;;-1.30;99.90;230.40;231737.00;;;;5041428;28;20210;-77
2023/03/02 07:43:29;;;;;;;0.15;0.15;;;-1.20;99.90;230.40;231737.00;;;;5043651;28;20215;-76
2023/03/02 07:45:59;;;;;;;0.20;0.20;;;-1.10;99.90;230.40;231737.00;;;;5042353;28;20232;-77
2023/03/02 07:48:27;;;;;;;0.10;0.10;;;-0.90;99.90;230.40;231737.00;;;;5041904;28;20229;-77
2023/03/02 07:50:58;;;;;;;0.10;0.10;;;-0.80;99.90;230.40;231737.00;;;;5042409;28;20220;-77
2023/03/02 07:53:26;;;;;;;0.20;0.20;;;-0.70;99.90;230.40;231737.00;;;;5041456;28;20219;-77
2023/03/02 07:55:55;;;;;;;0.20;0.20;;;-0.60;99.90;230.40;231737.00;;;;5042687;28;20203;-77
2023/03/02 07:58:24;;;;;;;0.10;0.10;;;-0.50;99.90;230.40;231737.00;;;;5044931;28;20252;-77
2023/03/02 08:00:52;;;;;;;0.10;0.10;;;-0.50;99.90;230.40;231737.00;;;;5041425;28;20675;-77
2023/03/02 08:03:20;;;;;;;0.10;0.10;;;-0.50;99.90;230.40;231737.00;;;;5040186;28;20225;-77
2023/03/02 08:05:48;;;;;;;0.10;0.10;;;-0.60;99.90;230.40;231737.00;;;;5042813;28;20197;-77
2023/03/02 08:08:16;;;;;;;0.10;0.10;;;-0.50;99.90;230.40;231737.00;;;;5041165;28;20307;-77
2023/03/02 08:10:44;;;;;;;0.20;0.20;;;-0.40;99.90;230.40;231737.00;;;;5023243;28;20672;-77
2023/03/02 08:13:12;;;;;;;0.10;0.10;;;-0.30;99.90;230.40;231737.00;;;;5038944;28;20223;-77
2023/03/02 08:15:41;;;;;;;0.10;0.10;;;-0.20;99.90;230.40;231737.00;;;;5040452;28;20195;-77
2023/03/02 08:18:09;;;;;;;0.10;0.10;;;-0.10;99.90;230.40;231737.00;;;;5042888;28;20210;-77
2023/03/02 08:20:37;;;;;;;0.10;0.10;;;0.00;99.90;230.40;231737.00;;;;5043099;28;20806;-77
2023/03/02 08:23:05;;;;;;;0.10;0.10;;;0.00;99.90;230.40;231737.00;;;;5040836;28;20287;-79
2023/03/02 08:25:33;;;;;;;0.10;0.10;;;0.20;99.90;230.40;231737.00;;;;5038766;28;20210;-77
2023/03/02 08:28:01;;;;;;;0.10;0.10;;;0.20;99.90;230.40;231737.00;;;;5040293;28;20714;-77
2023/03/02 08:30:29;;;;;;;0.10;0.10;;;0.20;99.90;230.40;231737.00;;;;5040210;28;20289;-77
2023/03/02 08:32:59;;;;;;;0.10;0.10;;;0.30;99.90;230.40;231737.00;;;;5038519;28;20206;-77
2023/03/02 08:35:32;;;;;;;0.10;0.10;;;0.40;99.90;230.40;231737.00;;;;5040062;28;21414;-77
2023/03/02 08:38:00;;;;;;;0.10;0.10;;;0.50;99.90;230.40;231737.00;;;;5054410;28;20571;-76
2023/03/02 08:40:28;;;;;;;0.13;0.13;;;0.60;99.90;230.40;231737.00;;;;5042242;28;20607;-76
2023/03/02 08:42:56;;;;;;;0.10;0.10;;;0.70;99.90;230.40;231737.00;;;;5041875;28;20227;-77
2023/03/02 08:45:25;;;;;;;0.13;0.13;;;0.80;99.90;230.40;231737.00;;;;5023044;28;20244;-76
2023/03/02 08:47:53;;;;;;;0.10;0.10;;;0.90;99.90;230.40;231737.00;;;;5040842;28;20198;-77
2023/03/02 08:50:23;;;;;;;0.10;0.10;;;0.90;99.90;230.40;231737.00;;;;5041136;28;20280;-77
2023/03/02 08:52:51;;;;;;;0.10;0.10;;;1.00;99.90;230.40;231737.00;;;;5038402;28;20210;-77
2023/03/02 08:55:19;;;;;;;0.10;0.10;;;1.10;99.90;230.40;231737.00;;;;5038983;28;20202;-77
2023/03/02 08:57:48;;;;;;;0.17;0.17;;;1.10;99.90;230.40;231737.00;;;;5040630;28;20705;-77
2023/03/02 09:00:17;;;;;;;0.10;0.10;;;1.20;99.90;230.40;231737.00;;;;5041445;28;20296;-78
2023/03/02 09:02:45;;;;;;;0.10;0.10;;;1.30;99.90;230.40;231737.00;;;;5039181;28;20358;-78
2023/03/02 09:05:13;;;;;;;0.10;0.10;;;1.40;99.90;230.40;231737.00;;;;5039467;28;20199;-80
2023/03/02 09:07:44;;;;;;;0.10;0.10;;;1.50;99.90;230.40;231737.00;;;;5039495;28;20191;-78
2023/03/02 09:10:12;;;;;;;0.10;0.10;;;1.50;99.90;230.40;231737.00;;;;5038885;28;20714;-78
2023/03/02 09:12:40;;;;;;;0.20;0.20;;;1.60;99.90;230.40;231737.00;;;;5038633;28;20265;-78
2023/03/02 09:15:08;;;;;;;0.10;0.10;;;1.60;99.90;230.40;231737.00;;;;5039367;28;20268;-78
2023/03/02 09:17:37;;;;;;;0.10;0.10;;;1.60;99.90;230.40;231737.00;;;;5038698;28;20237;-78
2023/03/02 09:20:06;;;;;;;0.10;0.10;;;1.70;99.90;230.40;231737.00;;;;5040063;28;20265;-80
2023/03/02 09:22:35;;;;;;;0.10;0.10;;;1.80;99.90;230.40;231737.00;;;;5022839;28;20603;-78
2023/03/02 09:25:06;;;;;;;0.10;0.10;;;2.00;99.90;230.40;231737.00;;;;5018191;28;20215;-77
2023/03/02 09:27:34;;;;;;;0.10;0.10;;;2.10;99.90;230.40;231737.00;;;;5042762;28;20687;-77
2023/03/02 09:30:02;;;;;;;0.10;0.10;;;2.10;99.90;230.40;231737.00;;;;5044572;28;20277;-78
2023/03/02 09:32:30;;;;;;;0.10;0.10;;;2.10;99.90;230.40;231737.00;;;;5041375;28;20276;-78
2023/03/02 09:34:58;;;;;;;0.10;0.10;;;2.20;99.90;230.40;231737.00;;;;5041894;28;20632;-78
2023/03/02 09:37:28;;;;;;;0.10;0.10;;;2.40;99.90;230.40;231737.00;;;;5042116;28;20202;-77
2023/03/02 09:39:56;;;;;;;0.10;0.10;;;2.40;99.90;230.40;231737.00;;;;5042047;28;20219;-77
2023/03/02 09:43:02;;;;;;;0.10;0.10;;;2.50;99.90;230.40;231737.00;;;;5042838;28;20281;-77
2023/03/02 09:45:46;;;;;;;0.10;0.10;;;2.60;99.90;230.40;231737.00;;;;5025733;28;20271;-78
2023/03/02 09:48:27;;;;;;;0.10;0.10;;;2.70;99.90;230.40;231737.00;;;;5042457;28;20611;-78
2023/03/02 09:51:15;;;;;;;0.10;0.10;;;2.80;99.90;230.40;231737.00;;;;5043970;28;20224;-78
2023/03/02 09:53:51;;;;;;;0.10;0.10;;;2.90;99.90;230.40;231737.00;;;;5042098;28;20222;-78
2023/03/02 09:56:21;;;;;;;0.10;0.10;;;3.00;99.90;230.40;231737.00;;;;5044444;28;20585;-78
2023/03/02 09:58:58;;;;;;;0.10;0.10;;;3.10;99.90;230.40;231737.00;;;;5044399;28;20226;-78
2023/03/02 10:01:39;;;;;;;0.10;0.10;;;3.20;99.90;230.40;231737.00;;;;5042302;28;20199;-78
2023/03/02 10:04:21;;;;;;;0.10;0.10;;;3.20;99.90;230.40;231737.00;;;;5041776;28;20202;-78
2023/03/02 10:06:58;;;;;;;0.10;0.10;;;3.30;99.90;230.40;231737.00;;;;5043127;28;20191;-78
2023/03/02 10:09:27;;;;;;;0.10;0.10;;;3.30;99.90;230.40;231737.00;;;;5048109;28;20586;-80
2023/03/02 10:12:18;;;;;;;0.10;0.10;;;3.40;99.90;230.40;231737.00;;;;5040876;28;20306;-78
2023/03/02 10:14:59;;;;;;;0.10;0.10;;;3.50;99.90;230.40;231737.00;;;;5046710;28;20256;-78
2023/03/02 10:17:44;;;;;;;0.10;0.10;;;3.60;99.90;230.40;231737.00;;;;5042859;28;20203;-77
2023/03/02 10:20:20;;;;;;;0.10;0.10;;;3.70;99.90;230.40;231737.00;;;;5043329;28;20718;-77
2023/03/02 10:22:56;;;;;;;0.10;0.10;;;3.70;99.90;230.40;231737.00;;;;5032943;28;20222;-78
2023/03/02 10:25:37;;;;;;;0.10;0.10;;;3.70;99.90;230.40;231737.00;;;;5022267;28;20401;-78
2023/03/02 10:28:16;;;;;;;0.10;0.10;;;3.90;99.90;230.40;231737.00;;;;5022734;28;20253;-78
2023/03/02 10:30:51;;;;;;;0.10;0.10;;;3.90;99.90;230.40;231737.00;;;;5023176;28;20215;-78
2023/03/02 10:33:21;;;;;;;0.10;0.10;;;4.00;99.90;230.40;231737.00;;;;5022067;28;20223;-78
2023/03/02 10:35:53;;;;;;;0.10;0.10;;;4.00;99.90;230.40;231737.00;;;;5022999;28;20229;-78
2023/03/02 10:38:25;;;;;;;0.10;0.10;;;4.10;99.90;230.40;231737.00;;;;5022335;28;20188;-78
2023/03/02 10:41:00;;;;;;;0.10;0.10;;;4.30;99.90;230.40;231737.00;;;;5024848;28;20659;-78
2023/03/02 10:43:36;;;;;;;0.10;0.10;;;4.40;99.90;230.40;231737.00;;;;5022180;28;20289;-78
2023/03/02 10:46:09;;;;;;;0.10;0.10;;;4.50;99.90;230.40;231737.00;;;;5023726;28;20199;-78
2023/03/02 10:48:48;;;;;;;0.10;0.10;;;4.50;99.90;230.40;231737.00;;;;5022638;28;20195;-78
2023/03/02 10:51:29;;;;;;;0.10;0.10;;;4.60;99.90;230.40;231737.00;;;;5023092;28;20268;-78
2023/03/02 10:54:10;;;;;;;0.10;0.10;;;4.70;99.90;230.40;231737.00;;;;5021437;28;20194;-78
2023/03/02 10:56:41;;;;;;;0.10;0.10;;;4.90;99.90;230.40;231737.00;;;;5025421;28;20618;-78
2023/03/02 10:59:42;;;;;;;0.10;0.10;;;4.90;99.90;230.40;231737.00;;;;5026232;28;20206;-78